sensor_id;sensor_type;location;lat;lon;timestamp;temperature;humidity
34815;DHT22;21030;53.912;15.214;2023-04-09T00:01:04;33.90;22.10
34815;DHT22;21030;53.912;15.214;2023-04-09T00:03:31;33.70;22.10
34815;DHT22;21030;53.912;15.214;2023-04-09T00:05:59;33.80;22.20
34815;DHT22;21030;53.912;15.214;2023-04-09T00:08:29;34.00;22.10
34815;DHT22;21030;53.912;15.214;2023-04-09T00:10:57;34.10;22.00
34815;DHT22;21030;53.912;15.214;2023-04-09T00:13:24;34.10;21.90
34815;DHT22;21030;53.912;15.214;2023-04-09T00:16:05;34.10;22.00
34815;DHT22;21030;53.912;15.214;2023-04-09T00:18:32;34.10;22.00
34815;DHT22;21030;53.912;15.214;2023-04-09T00:20:59;33.90;21.90
34815;DHT22;21030;53.912;15.214;2023-04-09T00:23:27;34.10;21.90
34815;DHT22;21030;53.912;15.214;2023-04-09T00:25:54;34.10;21.90
34815;DHT22;21030;53.912;15.214;2023-04-09T00:28:21;34.20;22.00
34815;DHT22;21030;53.912;15.214;2023-04-09T00:30:48;34.30;21.90
34815;DHT22;21030;53.912;15.214;2023-04-09T00:33:15;34.20;21.80
34815;DHT22;21030;53.912;15.214;2023-04-09T00:35:42;34.30;21.80
34815;DHT22;21030;53.912;15.214;2023-04-09T00:38:09;34.30;21.70
34815;DHT22;21030;53.912;15.214;2023-04-09T00:40:36;34.40;21.80
34815;DHT22;21030;53.912;15.214;2023-04-09T00:43:03;34.50;21.80
34815;DHT22;21030;53.912;15.214;2023-04-09T00:45:32;34.50;21.70
34815;DHT22;21030;53.912;15.214;2023-04-09T00:47:59;34.60;21.70
34815;DHT22;21030;53.912;15.214;2023-04-09T00:50:26;34.60;21.60
34815;DHT22;21030;53.912;15.214;2023-04-09T00:52:54;34.60;21.70
34815;DHT22;21030;53.912;15.214;2023-04-09T00:55:22;34.60;21.70
34815;DHT22;21030;53.912;15.214;2023-04-09T00:57:49;34.60;21.70
34815;DHT22;21030;53.912;15.214;2023-04-09T01:00:16;34.60;21.70
34815;DHT22;21030;53.912;15.214;2023-04-09T01:02:43;34.50;21.70
34815;DHT22;21030;53.912;15.214;2023-04-09T01:05:11;34.50;21.70
34815;DHT22;21030;53.912;15.214;2023-04-09T01:10:57;34.50;21.70
34815;DHT22;21030;53.912;15.214;2023-04-09T01:14:00;34.40;21.60
34815;DHT22;21030;53.912;15.214;2023-04-09T01:16:28;34.60;21.70
34815;DHT22;21030;53.912;15.214;2023-04-09T01:19:01;34.60;21.70
34815;DHT22;21030;53.912;15.214;2023-04-09T01:21:32;34.50;21.70
34815;DHT22;21030;53.912;15.214;2023-04-09T01:24:33;34.60;21.70
34815;DHT22;21030;53.912;15.214;2023-04-09T01:27:07;34.40;21.70
34815;DHT22;21030;53.912;15.214;2023-04-09T01:29:38;34.20;21.60
34815;DHT22;21030;53.912;15.214;2023-04-09T01:32:08;34.20;21.70
34815;DHT22;21030;53.912;15.214;2023-04-09T01:34:35;34.30;21.70
34815;DHT22;21030;53.912;15.214;2023-04-09T01:37:05;34.40;22.30
34815;DHT22;21030;53.912;15.214;2023-04-09T01:39:32;34.50;21.70
34815;DHT22;21030;53.912;15.214;2023-04-09T01:42:00;34.50;21.70
34815;DHT22;21030;53.912;15.214;2023-04-09T01:44:32;34.40;21.60
34815;DHT22;21030;53.912;15.214;2023-04-09T01:47:00;34.40;21.60
34815;DHT22;21030;53.912;15.214;2023-04-09T01:49:28;34.40;21.70
34815;DHT22;21030;53.912;15.214;2023-04-09T01:51:56;34.40;21.70
34815;DHT22;21030;53.912;15.214;2023-04-09T01:54:23;34.40;21.60
34815;DHT22;21030;53.912;15.214;2023-04-09T01:56:50;34.50;21.70
34815;DHT22;21030;53.912;15.214;2023-04-09T01:59:17;34.60;21.70
34815;DHT22;21030;53.912;15.214;2023-04-09T02:01:46;34.60;21.60
34815;DHT22;21030;53.912;15.214;2023-04-09T02:04:23;34.60;21.70
34815;DHT22;21030;53.912;15.214;2023-04-09T02:06:57;34.50;21.70
34815;DHT22;21030;53.912;15.214;2023-04-09T02:09:29;34.50;21.70
34815;DHT22;21030;53.912;15.214;2023-04-09T02:11:58;34.60;21.70
34815;DHT22;21030;53.912;15.214;2023-04-09T02:14:29;34.60;21.60
34815;DHT22;21030;53.912;15.214;2023-04-09T02:16:58;34.60;22.20
34815;DHT22;21030;53.912;15.214;2023-04-09T02:19:43;34.70;21.60
34815;DHT22;21030;53.912;15.214;2023-04-09T02:22:12;34.60;21.70
34815;DHT22;21030;53.912;15.214;2023-04-09T02:24:40;34.60;21.70
34815;DHT22;21030;53.912;15.214;2023-04-09T02:27:08;34.70;21.70
34815;DHT22;21030;53.912;15.214;2023-04-09T02:29:38;34.60;21.70
34815;DHT22;21030;53.912;15.214;2023-04-09T02:32:05;34.70;21.70
34815;DHT22;21030;53.912;15.214;2023-04-09T02:34:33;34.70;21.70
34815;DHT22;21030;53.912;15.214;2023-04-09T02:37:00;34.60;21.60
34815;DHT22;21030;53.912;15.214;2023-04-09T02:39:27;34.60;21.60
34815;DHT22;21030;53.912;15.214;2023-04-09T02:41:54;34.60;21.60
34815;DHT22;21030;53.912;15.214;2023-04-09T02:44:22;34.70;21.60
34815;DHT22;21030;53.912;15.214;2023-04-09T02:46:50;34.70;21.60
34815;DHT22;21030;53.912;15.214;2023-04-09T02:49:17;34.80;21.60
34815;DHT22;21030;53.912;15.214;2023-04-09T02:51:44;34.70;21.60
34815;DHT22;21030;53.912;15.214;2023-04-09T02:54:11;34.80;21.60
34815;DHT22;21030;53.912;15.214;2023-04-09T02:56:38;34.80;21.60
34815;DHT22;21030;53.912;15.214;2023-04-09T02:59:05;34.60;21.70
34815;DHT22;21030;53.912;15.214;2023-04-09T03:01:34;34.70;21.80
34815;DHT22;21030;53.912;15.214;2023-04-09T03:04:01;34.60;22.00
34815;DHT22;21030;53.912;15.214;2023-04-09T03:06:28;34.60;21.70
34815;DHT22;21030;53.912;15.214;2023-04-09T03:08:55;34.60;21.70
34815;DHT22;21030;53.912;15.214;2023-04-09T03:11:22;34.50;21.70
34815;DHT22;21030;53.912;15.214;2023-04-09T03:13:49;34.40;21.80
34815;DHT22;21030;53.912;15.214;2023-04-09T03:16:16;34.40;21.80
34815;DHT22;21030;53.912;15.214;2023-04-09T03:18:44;34.40;21.70
34815;DHT22;21030;53.912;15.214;2023-04-09T03:21:11;34.40;21.80
34815;DHT22;21030;53.912;15.214;2023-04-09T03:23:42;34.00;22.00
34815;DHT22;21030;53.912;15.214;2023-04-09T03:26:09;34.10;22.10
34815;DHT22;21030;53.912;15.214;2023-04-09T03:28:36;34.10;22.00
34815;DHT22;21030;53.912;15.214;2023-04-09T03:31:03;34.00;22.00
34815;DHT22;21030;53.912;15.214;2023-04-09T03:33:30;34.00;22.20
34815;DHT22;21030;53.912;15.214;2023-04-09T03:35:57;34.10;22.10
34815;DHT22;21030;53.912;15.214;2023-04-09T03:38:24;34.20;22.00
34815;DHT22;21030;53.912;15.214;2023-04-09T03:40:51;34.20;21.90
34815;DHT22;21030;53.912;15.214;2023-04-09T03:43:18;34.30;21.90
34815;DHT22;21030;53.912;15.214;2023-04-09T03:45:45;34.30;21.90
34815;DHT22;21030;53.912;15.214;2023-04-09T03:48:12;34.20;21.90
34815;DHT22;21030;53.912;15.214;2023-04-09T03:50:40;34.30;21.90
34815;DHT22;21030;53.912;15.214;2023-04-09T03:53:07;34.40;21.80
34815;DHT22;21030;53.912;15.214;2023-04-09T03:55:36;34.40;21.80
34815;DHT22;21030;53.912;15.214;2023-04-09T03:58:03;34.50;21.70
34815;DHT22;21030;53.912;15.214;2023-04-09T04:00:30;34.60;21.70
34815;DHT22;21030;53.912;15.214;2023-04-09T04:02:57;34.40;21.80
34815;DHT22;21030;53.912;15.214;2023-04-09T04:05:25;34.50;21.70
34815;DHT22;21030;53.912;15.214;2023-04-09T04:07:52;34.50;21.70
34815;DHT22;21030;53.912;15.214;2023-04-09T04:10:21;34.50;21.80
34815;DHT22;21030;53.912;15.214;2023-04-09T04:12:48;34.50;21.80
34815;DHT22;21030;53.912;15.214;2023-04-09T04:15:15;34.40;21.80
34815;DHT22;21030;53.912;15.214;2023-04-09T04:17:42;34.30;21.90
34815;DHT22;21030;53.912;15.214;2023-04-09T04:20:09;34.30;21.90
34815;DHT22;21030;53.912;15.214;2023-04-09T04:22:37;34.30;21.90
34815;DHT22;21030;53.912;15.214;2023-04-09T04:25:04;34.30;21.90
34815;DHT22;21030;53.912;15.214;2023-04-09T04:27:31;34.00;21.90
34815;DHT22;21030;53.912;15.214;2023-04-09T04:29:58;34.10;22.00
34815;DHT22;21030;53.912;15.214;2023-04-09T04:32:27;34.20;21.90
34815;DHT22;21030;53.912;15.214;2023-04-09T04:34:55;34.30;21.90
34815;DHT22;21030;53.912;15.214;2023-04-09T04:37:22;34.30;21.90
34815;DHT22;21030;53.912;15.214;2023-04-09T04:39:49;34.40;21.90
34815;DHT22;21030;53.912;15.214;2023-04-09T04:42:16;34.40;21.90
34815;DHT22;21030;53.912;15.214;2023-04-09T04:44:43;34.30;21.90
34815;DHT22;21030;53.912;15.214;2023-04-09T04:47:10;34.20;21.90
34815;DHT22;21030;53.912;15.214;2023-04-09T04:49:38;34.20;22.10
34815;DHT22;21030;53.912;15.214;2023-04-09T04:52:05;34.20;22.00
34815;DHT22;21030;53.912;15.214;2023-04-09T04:54:33;34.30;21.90
34815;DHT22;21030;53.912;15.214;2023-04-09T04:57:01;34.30;21.90
34815;DHT22;21030;53.912;15.214;2023-04-09T04:59:28;34.40;21.90
34815;DHT22;21030;53.912;15.214;2023-04-09T05:01:55;34.10;21.90
34815;DHT22;21030;53.912;15.214;2023-04-09T05:04:23;34.10;22.00
34815;DHT22;21030;53.912;15.214;2023-04-09T05:06:50;34.30;22.00
34815;DHT22;21030;53.912;15.214;2023-04-09T05:09:17;34.20;21.80
34815;DHT22;21030;53.912;15.214;2023-04-09T05:11:47;34.10;21.90
34815;DHT22;21030;53.912;15.214;2023-04-09T05:14:14;34.30;22.00
34815;DHT22;21030;53.912;15.214;2023-04-09T05:16:41;34.40;21.90
34815;DHT22;21030;53.912;15.214;2023-04-09T05:19:08;34.30;21.90
34815;DHT22;21030;53.912;15.214;2023-04-09T05:21:36;33.90;21.90
34815;DHT22;21030;53.912;15.214;2023-04-09T05:24:03;34.00;22.10
34815;DHT22;21030;53.912;15.214;2023-04-09T05:26:31;34.10;22.10
34815;DHT22;21030;53.912;15.214;2023-04-09T05:28:58;34.10;22.30
34815;DHT22;21030;53.912;15.214;2023-04-09T05:31:25;34.00;22.00
34815;DHT22;21030;53.912;15.214;2023-04-09T05:33:52;34.10;22.00
34815;DHT22;21030;53.912;15.214;2023-04-09T05:36:19;34.20;21.90
34815;DHT22;21030;53.912;15.214;2023-04-09T05:38:48;34.10;21.80
34815;DHT22;21030;53.912;15.214;2023-04-09T05:41:16;34.00;22.00
34815;DHT22;21030;53.912;15.214;2023-04-09T05:43:43;34.00;22.00
34815;DHT22;21030;53.912;15.214;2023-04-09T05:46:10;34.20;22.00
34815;DHT22;21030;53.912;15.214;2023-04-09T05:48:38;34.20;21.90
34815;DHT22;21030;53.912;15.214;2023-04-09T05:51:05;34.40;21.80
34815;DHT22;21030;53.912;15.214;2023-04-09T05:53:33;34.40;21.90
34815;DHT22;21030;53.912;15.214;2023-04-09T05:56:00;34.40;21.80
34815;DHT22;21030;53.912;15.214;2023-04-09T05:58:27;34.40;21.70
34815;DHT22;21030;53.912;15.214;2023-04-09T06:00:54;34.40;21.70
34815;DHT22;21030;53.912;15.214;2023-04-09T06:03:21;34.60;21.70
34815;DHT22;21030;53.912;15.214;2023-04-09T06:05:49;34.60;21.60
34815;DHT22;21030;53.912;15.214;2023-04-09T06:08:16;34.60;21.60
34815;DHT22;21030;53.912;15.214;2023-04-09T06:10:43;34.60;21.50
34815;DHT22;21030;53.912;15.214;2023-04-09T06:13:10;34.70;21.50
34815;DHT22;21030;53.912;15.214;2023-04-09T06:15:38;34.70;21.50
34815;DHT22;21030;53.912;15.214;2023-04-09T06:18:05;34.70;21.60
34815;DHT22;21030;53.912;15.214;2023-04-09T06:20:32;34.70;21.50
34815;DHT22;21030;53.912;15.214;2023-04-09T06:23:01;34.90;21.50
34815;DHT22;21030;53.912;15.214;2023-04-09T06:25:29;34.90;21.50
34815;DHT22;21030;53.912;15.214;2023-04-09T06:27:56;34.90;21.30
34815;DHT22;21030;53.912;15.214;2023-04-09T06:30:23;34.90;21.40
34815;DHT22;21030;53.912;15.214;2023-04-09T06:32:51;34.90;21.40
34815;DHT22;21030;53.912;15.214;2023-04-09T06:35:21;35.00;21.30
34815;DHT22;21030;53.912;15.214;2023-04-09T06:37:48;35.00;21.20
34815;DHT22;21030;53.912;15.214;2023-04-09T06:40:17;35.00;21.30
34815;DHT22;21030;53.912;15.214;2023-04-09T06:42:48;35.00;21.30
34815;DHT22;21030;53.912;15.214;2023-04-09T06:45:15;35.10;21.30
34815;DHT22;21030;53.912;15.214;2023-04-09T06:47:42;34.90;21.20
34815;DHT22;21030;53.912;15.214;2023-04-09T06:50:09;35.20;21.30
34815;DHT22;21030;53.912;15.214;2023-04-09T06:52:37;35.10;21.20
34815;DHT22;21030;53.912;15.214;2023-04-09T06:55:04;35.20;21.10
34815;DHT22;21030;53.912;15.214;2023-04-09T06:57:31;35.00;21.10
34815;DHT22;21030;53.912;15.214;2023-04-09T06:59:58;34.90;21.10
34815;DHT22;21030;53.912;15.214;2023-04-09T07:02:26;34.40;21.50
34815;DHT22;21030;53.912;15.214;2023-04-09T07:04:54;34.60;21.30
34815;DHT22;21030;53.912;15.214;2023-04-09T07:07:21;34.60;21.30
34815;DHT22;21030;53.912;15.214;2023-04-09T07:09:52;34.90;21.30
34815;DHT22;21030;53.912;15.214;2023-04-09T07:12:29;35.10;21.10
34815;DHT22;21030;53.912;15.214;2023-04-09T07:15:04;35.00;21.10
34815;DHT22;21030;53.912;15.214;2023-04-09T07:17:33;35.00;21.00
34815;DHT22;21030;53.912;15.214;2023-04-09T07:20:00;35.20;21.10
34815;DHT22;21030;53.912;15.214;2023-04-09T07:22:28;34.90;21.00
34815;DHT22;21030;53.912;15.214;2023-04-09T07:24:56;35.30;20.90
34815;DHT22;21030;53.912;15.214;2023-04-09T07:27:25;35.40;20.70
34815;DHT22;21030;53.912;15.214;2023-04-09T07:29:57;35.40;20.70
34815;DHT22;21030;53.912;15.214;2023-04-09T07:32:27;35.60;20.60
34815;DHT22;21030;53.912;15.214;2023-04-09T07:34:54;35.70;21.20
34815;DHT22;21030;53.912;15.214;2023-04-09T07:37:22;36.00;20.60
34815;DHT22;21030;53.912;15.214;2023-04-09T07:39:49;35.90;20.40
34815;DHT22;21030;53.912;15.214;2023-04-09T07:42:17;36.10;20.30
34815;DHT22;21030;53.912;15.214;2023-04-09T07:44:44;36.30;20.20
34815;DHT22;21030;53.912;15.214;2023-04-09T07:47:11;36.50;20.00
34815;DHT22;21030;53.912;15.214;2023-04-09T07:49:38;36.40;20.20
34815;DHT22;21030;53.912;15.214;2023-04-09T07:52:06;36.70;20.30
34815;DHT22;21030;53.912;15.214;2023-04-09T07:54:33;37.00;20.00
34815;DHT22;21030;53.912;15.214;2023-04-09T07:57:01;37.20;20.10
34815;DHT22;21030;53.912;15.214;2023-04-09T07:59:28;37.30;19.80
34815;DHT22;21030;53.912;15.214;2023-04-09T08:01:58;37.40;19.80
34815;DHT22;21030;53.912;15.214;2023-04-09T08:04:26;37.40;19.70
34815;DHT22;21030;53.912;15.214;2023-04-09T08:06:53;37.00;19.40
34815;DHT22;21030;53.912;15.214;2023-04-09T08:09:20;37.20;19.60
34815;DHT22;21030;53.912;15.214;2023-04-09T08:11:48;37.20;19.60
34815;DHT22;21030;53.912;15.214;2023-04-09T08:14:16;37.40;19.70
34815;DHT22;21030;53.912;15.214;2023-04-09T08:16:48;37.40;19.50
34815;DHT22;21030;53.912;15.214;2023-04-09T08:19:16;37.50;19.70
34815;DHT22;21030;53.912;15.214;2023-04-09T08:21:44;37.80;20.00
34815;DHT22;21030;53.912;15.214;2023-04-09T08:24:14;38.10;19.30
34815;DHT22;21030;53.912;15.214;2023-04-09T08:26:42;38.30;19.10
34815;DHT22;21030;53.912;15.214;2023-04-09T08:29:10;38.40;19.10
34815;DHT22;21030;53.912;15.214;2023-04-09T08:31:40;38.60;19.00
34815;DHT22;21030;53.912;15.214;2023-04-09T08:34:07;38.60;18.80
34815;DHT22;21030;53.912;15.214;2023-04-09T08:36:35;38.40;18.70
34815;DHT22;21030;53.912;15.214;2023-04-09T08:39:02;38.70;18.80
34815;DHT22;21030;53.912;15.214;2023-04-09T08:41:30;39.10;18.90
34815;DHT22;21030;53.912;15.214;2023-04-09T08:43:57;39.10;19.00
34815;DHT22;21030;53.912;15.214;2023-04-09T08:46:26;38.80;18.70
34815;DHT22;21030;53.912;15.214;2023-04-09T08:48:53;39.00;18.60
34815;DHT22;21030;53.912;15.214;2023-04-09T08:51:22;39.30;19.00
34815;DHT22;21030;53.912;15.214;2023-04-09T08:54:00;39.70;18.50
34815;DHT22;21030;53.912;15.214;2023-04-09T08:56:30;39.40;18.40
34815;DHT22;21030;53.912;15.214;2023-04-09T08:58:57;39.40;18.10
34815;DHT22;21030;53.912;15.214;2023-04-09T09:01:27;39.90;18.80
34815;DHT22;21030;53.912;15.214;2023-04-09T09:03:56;39.90;17.80
34815;DHT22;21030;53.912;15.214;2023-04-09T09:06:27;40.30;17.80
34815;DHT22;21030;53.912;15.214;2023-04-09T09:09:16;40.30;17.70
34815;DHT22;21030;53.912;15.214;2023-04-09T09:11:48;39.80;18.10
34815;DHT22;21030;53.912;15.214;2023-04-09T09:14:19;39.70;18.50
34815;DHT22;21030;53.912;15.214;2023-04-09T09:22:01;39.90;17.70
34815;DHT22;21030;53.912;15.214;2023-04-09T09:24:30;39.40;17.60
34815;DHT22;21030;53.912;15.214;2023-04-09T09:26:59;38.80;17.60
34815;DHT22;21030;53.912;15.214;2023-04-09T09:29:27;39.40;18.20
34815;DHT22;21030;53.912;15.214;2023-04-09T09:31:55;39.30;18.50
34815;DHT22;21030;53.912;15.214;2023-04-09T09:34:23;39.60;18.40
34815;DHT22;21030;53.912;15.214;2023-04-09T09:36:50;39.40;18.30
34815;DHT22;21030;53.912;15.214;2023-04-09T09:39:17;39.60;18.40
34815;DHT22;21030;53.912;15.214;2023-04-09T09:41:45;39.50;18.00
34815;DHT22;21030;53.912;15.214;2023-04-09T09:44:30;39.80;18.40
34815;DHT22;21030;53.912;15.214;2023-04-09T09:46:58;39.20;18.40
34815;DHT22;21030;53.912;15.214;2023-04-09T09:49:26;39.50;18.50
34815;DHT22;21030;53.912;15.214;2023-04-09T09:51:55;39.60;18.80
34815;DHT22;21030;53.912;15.214;2023-04-09T09:54:25;39.60;18.30
34815;DHT22;21030;53.912;15.214;2023-04-09T09:56:54;39.30;18.20
34815;DHT22;21030;53.912;15.214;2023-04-09T09:59:28;39.80;18.50
34815;DHT22;21030;53.912;15.214;2023-04-09T10:01:59;39.50;18.40
34815;DHT22;21030;53.912;15.214;2023-04-09T10:04:33;39.60;18.20
34815;DHT22;21030;53.912;15.214;2023-04-09T10:07:05;39.60;18.10
34815;DHT22;21030;53.912;15.214;2023-04-09T10:09:34;39.50;18.10
34815;DHT22;21030;53.912;15.214;2023-04-09T10:12:08;39.90;18.30
34815;DHT22;21030;53.912;15.214;2023-04-09T10:14:38;40.00;18.00
34815;DHT22;21030;53.912;15.214;2023-04-09T10:17:05;40.10;18.10
34815;DHT22;21030;53.912;15.214;2023-04-09T10:19:41;39.80;18.10
34815;DHT22;21030;53.912;15.214;2023-04-09T10:22:15;40.20;18.10
34815;DHT22;21030;53.912;15.214;2023-04-09T10:24:45;40.20;18.00
34815;DHT22;21030;53.912;15.214;2023-04-09T10:27:15;39.50;17.70
34815;DHT22;21030;53.912;15.214;2023-04-09T10:29:47;39.60;17.70
34815;DHT22;21030;53.912;15.214;2023-04-09T10:32:19;40.20;18.10
34815;DHT22;21030;53.912;15.214;2023-04-09T10:34:48;40.30;17.50
34815;DHT22;21030;53.912;15.214;2023-04-09T10:37:26;40.60;17.80
34815;DHT22;21030;53.912;15.214;2023-04-09T10:39:54;40.60;18.10
34815;DHT22;21030;53.912;15.214;2023-04-09T10:42:34;41.00;17.60
34815;DHT22;21030;53.912;15.214;2023-04-09T10:47:35;41.50;17.20
34815;DHT22;21030;53.912;15.214;2023-04-09T10:50:20;40.70;17.30
34815;DHT22;21030;53.912;15.214;2023-04-09T10:52:57;41.10;17.60
34815;DHT22;21030;53.912;15.214;2023-04-09T10:55:39;41.50;17.20
34815;DHT22;21030;53.912;15.214;2023-04-09T10:58:09;41.20;16.90
34815;DHT22;21030;53.912;15.214;2023-04-09T11:00:41;41.40;17.40
34815;DHT22;21030;53.912;15.214;2023-04-09T11:05:51;40.40;16.90
34815;DHT22;21030;53.912;15.214;2023-04-09T11:08:18;41.00;17.20
34815;DHT22;21030;53.912;15.214;2023-04-09T11:10:47;41.30;16.90
34815;DHT22;21030;53.912;15.214;2023-04-09T11:13:17;41.40;16.90
34815;DHT22;21030;53.912;15.214;2023-04-09T11:15:46;41.00;16.90
34815;DHT22;21030;53.912;15.214;2023-04-09T11:18:24;40.90;16.90
34815;DHT22;21030;53.912;15.214;2023-04-09T11:23:23;40.90;17.00
34815;DHT22;21030;53.912;15.214;2023-04-09T11:25:51;41.00;17.20
34815;DHT22;21030;53.912;15.214;2023-04-09T11:28:19;40.70;17.00
34815;DHT22;21030;53.912;15.214;2023-04-09T11:30:46;40.10;16.90
34815;DHT22;21030;53.912;15.214;2023-04-09T11:33:15;40.40;17.40
34815;DHT22;21030;53.912;15.214;2023-04-09T11:35:46;40.50;17.40
34815;DHT22;21030;53.912;15.214;2023-04-09T11:38:13;40.70;17.50
34815;DHT22;21030;53.912;15.214;2023-04-09T11:40:41;40.90;17.50
34815;DHT22;21030;53.912;15.214;2023-04-09T11:43:16;40.90;17.20
34815;DHT22;21030;53.912;15.214;2023-04-09T11:45:44;40.70;17.20
34815;DHT22;21030;53.912;15.214;2023-04-09T11:48:15;40.60;17.10
34815;DHT22;21030;53.912;15.214;2023-04-09T11:50:45;40.70;17.30
34815;DHT22;21030;53.912;15.214;2023-04-09T11:53:19;41.20;17.20
34815;DHT22;21030;53.912;15.214;2023-04-09T11:55:49;41.20;17.10
34815;DHT22;21030;53.912;15.214;2023-04-09T11:58:23;41.50;17.00
34815;DHT22;21030;53.912;15.214;2023-04-09T12:00:57;41.10;16.80
34815;DHT22;21030;53.912;15.214;2023-04-09T12:03:29;40.90;16.80
34815;DHT22;21030;53.912;15.214;2023-04-09T12:06:00;41.40;17.30
34815;DHT22;21030;53.912;15.214;2023-04-09T12:08:27;41.40;17.10
34815;DHT22;21030;53.912;15.214;2023-04-09T12:10:54;40.70;17.30
34815;DHT22;21030;53.912;15.214;2023-04-09T12:13:31;40.80;17.20
34815;DHT22;21030;53.912;15.214;2023-04-09T12:15:59;41.00;17.50
34815;DHT22;21030;53.912;15.214;2023-04-09T12:18:27;41.50;17.70
34815;DHT22;21030;53.912;15.214;2023-04-09T12:20:54;41.70;17.40
34815;DHT22;21030;53.912;15.214;2023-04-09T12:23:21;41.80;17.20
34815;DHT22;21030;53.912;15.214;2023-04-09T12:25:48;42.00;17.20
34815;DHT22;21030;53.912;15.214;2023-04-09T12:28:16;41.90;17.10
34815;DHT22;21030;53.912;15.214;2023-04-09T12:30:45;41.90;17.00
34815;DHT22;21030;53.912;15.214;2023-04-09T12:33:12;41.90;17.00
34815;DHT22;21030;53.912;15.214;2023-04-09T12:35:39;41.90;16.70
34815;DHT22;21030;53.912;15.214;2023-04-09T12:38:07;42.20;16.80
34815;DHT22;21030;53.912;15.214;2023-04-09T12:40:34;42.00;16.90
34815;DHT22;21030;53.912;15.214;2023-04-09T12:43:02;41.80;16.90
34815;DHT22;21030;53.912;15.214;2023-04-09T12:45:31;41.60;17.20
34815;DHT22;21030;53.912;15.214;2023-04-09T12:47:58;40.80;17.10
34815;DHT22;21030;53.912;15.214;2023-04-09T12:50:25;40.90;17.90
34815;DHT22;21030;53.912;15.214;2023-04-09T12:52:54;40.70;17.70
34815;DHT22;21030;53.912;15.214;2023-04-09T12:55:21;40.70;17.50
34815;DHT22;21030;53.912;15.214;2023-04-09T12:57:49;40.50;17.70
34815;DHT22;21030;53.912;15.214;2023-04-09T13:00:17;40.80;17.90
34815;DHT22;21030;53.912;15.214;2023-04-09T13:02:44;40.80;17.90
34815;DHT22;21030;53.912;15.214;2023-04-09T13:05:11;40.50;17.40
34815;DHT22;21030;53.912;15.214;2023-04-09T13:07:38;39.90;17.40
34815;DHT22;21030;53.912;15.214;2023-04-09T13:10:08;39.10;17.70
34815;DHT22;21030;53.912;15.214;2023-04-09T13:12:36;39.30;18.20
34815;DHT22;21030;53.912;15.214;2023-04-09T13:15:06;39.20;18.00
34815;DHT22;21030;53.912;15.214;2023-04-09T13:17:33;38.70;18.00
34815;DHT22;21030;53.912;15.214;2023-04-09T13:20:00;38.90;18.30
34815;DHT22;21030;53.912;15.214;2023-04-09T13:22:28;38.60;18.40
34815;DHT22;21030;53.912;15.214;2023-04-09T13:24:55;38.80;18.80
34815;DHT22;21030;53.912;15.214;2023-04-09T13:27:23;39.00;18.40
34815;DHT22;21030;53.912;15.214;2023-04-09T13:29:50;38.10;18.10
34815;DHT22;21030;53.912;15.214;2023-04-09T13:32:20;37.40;19.20
34815;DHT22;21030;53.912;15.214;2023-04-09T13:34:49;37.50;19.20
34815;DHT22;21030;53.912;15.214;2023-04-09T13:37:18;37.10;18.90
34815;DHT22;21030;53.912;15.214;2023-04-09T13:39:45;37.50;19.10
34815;DHT22;21030;53.912;15.214;2023-04-09T13:42:12;37.60;18.80
34815;DHT22;21030;53.912;15.214;2023-04-09T13:44:40;37.00;18.30
34815;DHT22;21030;53.912;15.214;2023-04-09T13:47:11;37.10;18.90
34815;DHT22;21030;53.912;15.214;2023-04-09T13:49:39;36.80;19.00
34815;DHT22;21030;53.912;15.214;2023-04-09T13:52:08;37.10;19.50
34815;DHT22;21030;53.912;15.214;2023-04-09T13:54:35;37.50;19.40
34815;DHT22;21030;53.912;15.214;2023-04-09T13:57:03;37.70;19.00
34815;DHT22;21030;53.912;15.214;2023-04-09T13:59:30;38.00;18.70
34815;DHT22;21030;53.912;15.214;2023-04-09T14:01:57;38.30;18.70
34815;DHT22;21030;53.912;15.214;2023-04-09T14:04:25;38.30;18.70
34815;DHT22;21030;53.912;15.214;2023-04-09T14:06:52;38.90;18.40
34815;DHT22;21030;53.912;15.214;2023-04-09T14:09:19;39.00;18.00
34815;DHT22;21030;53.912;15.214;2023-04-09T14:11:46;38.70;17.50
34815;DHT22;21030;53.912;15.214;2023-04-09T14:14:16;38.30;17.40
34815;DHT22;21030;53.912;15.214;2023-04-09T14:16:44;38.60;17.60
34815;DHT22;21030;53.912;15.214;2023-04-09T14:19:11;38.60;17.70
34815;DHT22;21030;53.912;15.214;2023-04-09T14:21:38;38.70;17.90
34815;DHT22;21030;53.912;15.214;2023-04-09T14:24:05;38.60;17.60
34815;DHT22;21030;53.912;15.214;2023-04-09T14:26:33;38.90;17.50
34815;DHT22;21030;53.912;15.214;2023-04-09T14:29:00;38.10;17.20
34815;DHT22;21030;53.912;15.214;2023-04-09T14:31:28;38.60;17.30
34815;DHT22;21030;53.912;15.214;2023-04-09T14:33:55;39.00;17.10
34815;DHT22;21030;53.912;15.214;2023-04-09T14:36:22;39.00;17.30
34815;DHT22;21030;53.912;15.214;2023-04-09T14:38:50;39.80;17.60
34815;DHT22;21030;53.912;15.214;2023-04-09T14:41:19;39.80;17.40
34815;DHT22;21030;53.912;15.214;2023-04-09T14:43:46;40.20;17.30
34815;DHT22;21030;53.912;15.214;2023-04-09T14:46:14;40.50;17.00
34815;DHT22;21030;53.912;15.214;2023-04-09T14:48:41;40.70;16.70
34815;DHT22;21030;53.912;15.214;2023-04-09T14:51:09;40.80;16.60
34815;DHT22;21030;53.912;15.214;2023-04-09T14:53:37;39.80;16.40
34815;DHT22;21030;53.912;15.214;2023-04-09T14:56:04;39.30;16.50
34815;DHT22;21030;53.912;15.214;2023-04-09T14:58:32;38.70;16.70
34815;DHT22;21030;53.912;15.214;2023-04-09T15:00:59;38.30;17.10
34815;DHT22;21030;53.912;15.214;2023-04-09T15:03:26;38.70;17.40
34815;DHT22;21030;53.912;15.214;2023-04-09T15:05:54;38.40;17.40
34815;DHT22;21030;53.912;15.214;2023-04-09T15:08:21;38.70;17.80
34815;DHT22;21030;53.912;15.214;2023-04-09T15:10:49;38.70;17.50
34815;DHT22;21030;53.912;15.214;2023-04-09T15:13:17;38.20;17.30
34815;DHT22;21030;53.912;15.214;2023-04-09T15:15:47;37.70;17.60
34815;DHT22;21030;53.912;15.214;2023-04-09T15:18:14;37.20;17.70
34815;DHT22;21030;53.912;15.214;2023-04-09T15:20:42;37.10;17.90
34815;DHT22;21030;53.912;15.214;2023-04-09T15:23:09;36.40;18.40
34815;DHT22;21030;53.912;15.214;2023-04-09T15:25:38;35.80;18.90
34815;DHT22;21030;53.912;15.214;2023-04-09T15:28:06;35.60;19.00
34815;DHT22;21030;53.912;15.214;2023-04-09T15:30:34;35.50;19.40
34815;DHT22;21030;53.912;15.214;2023-04-09T15:33:01;35.30;19.60
34815;DHT22;21030;53.912;15.214;2023-04-09T15:35:30;35.00;19.80
34815;DHT22;21030;53.912;15.214;2023-04-09T15:37:57;34.40;20.00
34815;DHT22;21030;53.912;15.214;2023-04-09T15:40:24;34.50;20.40